• Join FlightAware (Why Join?)
  • Login
  • US Flag 
11:51AM EST


 

Airport Tracker/Info


-or-


 

Live Flight TrackerFlight Track Log ✈ SWA1046 ✈ 03-May-2013 ✈ KMDW - KRSW

Flight Track Log - Related Links

Times and Time Zones

All times are in EDT time to prevent confusion due to time zone crossing. See the SWA1046 flight status page for this flight to view local times or setup timezone preferences in your user account.

Time Position Orientation Groundspeed Altitude Reporting Facility
EDT Latitude Longitude Course Direction KTS MPH feet Rate Location/Type
08:35PM 41.8167 -87.7667 174° South 169 194 1,800  Level Chicago TRACON
08:36PM 41.7531 -87.7581 174° South 233 268 6,000 2,940 Climbing Chicago Center
08:37PM 41.6658 -87.7875 194° South 263 303 10,400 2,880 Climbing Chicago Center
08:38PM 41.5911 -87.8142 195° South 274 315 12,000 1,620 Climbing Chicago Center
08:39PM 41.5092 -87.8433 195° South 299 344 13,800 2,580 Climbing Chicago Center
08:41PM 41.4211 -87.8750 195° South 319 367 17,400 2,760 Climbing Chicago Center
08:42PM 41.3267 -87.8853 185° South 337 388 19,600 2,220 Climbing Chicago Center
08:43PM 41.2289 -87.8933 184° South 348 400 22,000 2,100 Climbing Chicago Center
08:44PM 41.1261 -87.8889 178° South 366 421 24,000 1,980 Climbing Chicago Center
08:45PM 41.0214 -87.8861 179° South 376 433 26,100 2,220 Climbing Chicago Center
08:46PM 40.8944 -87.8800 178° South 379 436 28,600 1,920 Climbing Chicago Center
08:47PM 40.7878 -87.8781 179° South 383 441 30,100 960 Climbing Chicago Center
08:49PM 40.5797 -87.8722 179° South 420 483 31,500 1,140 Climbing Indianapolis Center
08:50PM 40.4611 -87.8683 179° South 428 493 33,400 1,680 Climbing Indianapolis Center
08:51PM 40.3453 -87.8653 179° South 423 487 35,000 1,260 Climbing Indianapolis Center
08:52PM 40.2078 -87.8606 178° South 414 476 36,000 480 Climbing Indianapolis Center
08:53PM 40.0961 -87.8544 178° South 409 471 36,000  Level Indianapolis Center
08:54PM 39.9828 -87.8494 178° South 408 470 36,000  Level Indianapolis Center
08:55PM 39.8700 -87.8447 178° South 407 468 36,000  Level Indianapolis Center
08:56PM 39.7569 -87.8408 178° South 408 470 36,000 480 Level Indianapolis Center
08:57PM 39.6481 -87.8161 170° South 402 463 37,000 480 Climbing Indianapolis Center
08:58PM 39.5414 -87.7775 164° South 398 458 37,000  Level Indianapolis Center
08:59PM 39.4344 -87.7425 166° South 399 459 37,000  Level Indianapolis Center
09:00PM 39.3114 -87.7022 166° South 401 461 37,000  Level Indianapolis Center
09:01PM 39.2031 -87.6639 165° South 401 461 37,000  Level Indianapolis Center
09:02PM 39.0936 -87.6289 166° South 403 464 37,000  Level Indianapolis Center
09:03PM 38.9875 -87.5844 162° South 401 461 37,000  Level Indianapolis Center
09:04PM 38.8825 -87.5375 161° South 397 457 37,000  Level Indianapolis Center
09:05PM 38.7767 -87.4931 162° South 398 458 37,000  Level Indianapolis Center
09:06PM 38.6717 -87.4472 161° South 398 458 37,000  Level Indianapolis Center
09:07PM 38.5672 -87.4017 161° South 397 457 37,000  Level Indianapolis Center
09:08PM 38.4414 -87.3481 162° South 397 457 37,000  Level Indianapolis Center
09:09PM 38.3375 -87.3039 162° South 397 457 37,000  Level Indianapolis Center
09:10PM 38.2336 -87.2614 162° South 398 458 37,000  Level Indianapolis Center
09:11PM 38.1300 -87.2167 161° South 399 459 37,000  Level Indianapolis Center
09:12PM 38.0253 -87.1722 162° South 400 460 37,000  Level Indianapolis Center
09:13PM 37.9200 -87.1267 161° South 401 461 37,000  Level Indianapolis Center
09:14PM 37.8136 -87.0822 162° South 402 463 37,000  Level Indianapolis Center
09:15PM 37.7078 -87.0375 162° South 401 461 37,000  Level Indianapolis Center
09:16PM 37.6239 -87.0058 163° South 409 471 37,000  Level Memphis Center
09:17PM 37.5186 -86.9606 161° South 409 471 37,000  Level Memphis Center
09:18PM 37.4153 -86.9153 161° South 404 465 37,000  Level Memphis Center
09:19PM 37.3100 -86.8731 162° South 404 465 37,000  Level Memphis Center
09:20PM 37.1961 -86.8258 162° South 404 465 37,000 300 Level Memphis Center
09:21PM 37.0928 -86.7836 162° South 404 465 37,700 780 Climbing Memphis Center
09:22PM 36.9894 -86.7417 162° South 399 459 38,600 600 Climbing Memphis Center
09:23PM 36.8861 -86.6994 162° South 399 459 39,000 180 Climbing Memphis Center
09:24PM 36.7808 -86.6553 161° South 399 459 39,000  Level Memphis Center
09:25PM 36.6753 -86.6108 161° South 399 459 39,000  Level Memphis Center
09:26PM 36.5717 -86.5692 162° South 399 459 39,000  Level Memphis Center
09:27PM 36.4789 -86.5297 161° South 394 453 39,000  Level Memphis Center
09:28PM 36.3733 -86.4883 162° South 394 453 39,000  Level Memphis Center
09:29PM 36.2678 -86.4444 161° South 394 453 39,000  Level Memphis Center
09:30PM 36.1644 -86.4056 163° South 394 453 39,000  Level Memphis Center
09:31PM 36.0483 -86.3600 162° South 388 447 39,000  Level Memphis Center
09:33PM 35.8728 -86.2914 162° South 402 463 39,000  Level Atlanta Center
09:34PM 35.7672 -86.2500 162° South 396 456 39,000  Level Atlanta Center
09:35PM 35.6636 -86.2089 162° South 396 456 39,000  Level Atlanta Center
09:36PM 35.5539 -86.1678 163° South 396 456 39,000  Level Atlanta Center
09:37PM 35.4503 -86.1267 162° South 396 456 39,000  Level Atlanta Center
09:38PM 35.3425 -86.0808 161° South 401 461 39,000  Level Atlanta Center
09:39PM 35.2450 -86.0453 163° South 401 461 39,000  Level Atlanta Center
09:40PM 35.1414 -86.0047 162° South 395 455 39,000  Level Atlanta Center
09:41PM 35.0378 -85.9617 161° South 395 455 39,000  Level Atlanta Center
09:42PM 34.9297 -85.9211 163° South 395 455 39,000  Level Atlanta Center
09:43PM 34.8136 -85.8706 160° South 400 460 39,000  Level Atlanta Center
09:44PM 34.7058 -85.8303 163° South 400 460 39,000  Level Atlanta Center
09:45PM 34.6081 -85.7978 165° South 400 460 39,000  Level Atlanta Center
09:46PM 34.5003 -85.7578 163° South 400 460 39,000  Level Atlanta Center
09:47PM 34.3922 -85.7203 164° South 400 460 39,000  Level Atlanta Center
09:48PM 34.2758 -85.6753 162° South 402 463 39,000  Level Atlanta Center
09:49PM 34.1658 -85.6381 164° South 408 470 39,000  Level Atlanta Center
09:50PM 34.0578 -85.5983 163° South 408 470 39,000  Level Atlanta Center
09:51PM 33.9497 -85.5589 163° South 408 470 39,000  Level Atlanta Center
09:52PM 33.8397 -85.5194 163° South 408 470 39,000  Level Atlanta Center
09:53PM 33.7294 -85.4800 163° South 413 475 39,000  Level Atlanta Center
09:54PM 33.6297 -85.4433 163° South 413 475 39,000  Level Atlanta Center
09:55PM 33.5194 -85.4067 165° South 413 475 39,000  Level Atlanta Center
09:56PM 33.4094 -85.3653 163° South 413 475 39,000  Level Atlanta Center
09:57PM 33.2969 -85.3236 163° South 413 475 39,000  Level Atlanta Center
09:58PM 33.1867 -85.2875 165° South 413 475 39,000  Level Atlanta Center
09:59PM 33.0786 -85.2461 162° South 413 475 39,000  Level Atlanta Center
10:00PM 32.9581 -85.1975 161° South 407 468 39,000  Level Atlanta Center
10:01PM 32.8478 -85.1564 163° South 407 468 39,000  Level Atlanta Center
10:02PM 32.7417 -85.1206 164° South 407 468 39,000  Level Atlanta Center
10:03PM 32.6314 -85.0822 164° South 412 474 39,000  Level Atlanta Center
10:04PM 32.5211 -85.0439 164° South 412 474 39,000  Level Atlanta Center
10:05PM 32.4108 -85.0058 164° South 412 474 39,000  Level Atlanta Center
10:06PM 32.3003 -84.9678 164° South 418 481 39,000  Level Atlanta Center
10:07PM 32.1422 -84.9119 163° South 417 480 39,000  Level Jacksonville Center
10:08PM 32.0300 -84.8750 164° South 417 480 39,000  Level Jacksonville Center
10:09PM 31.9200 -84.8361 163° South 417 480 39,000  Level Jacksonville Center
10:10PM 31.7972 -84.7967 165° South 408 470 39,000  Level Jacksonville Center
10:11PM 31.6850 -84.7603 165° South 415 478 39,000  Level Jacksonville Center
10:12PM 31.5731 -84.7189 163° South 415 478 39,000  Level Jacksonville Center
10:13PM 31.4586 -84.6778 163° South 415 478 39,000  Level Jacksonville Center
10:14PM 31.3592 -84.6247 156° South 425 489 39,000  Level Jacksonville Center
10:15PM 31.2472 -84.5692 157° South 430 495 39,000  Level Jacksonville Center
10:16PM 31.1353 -84.5139 157° South 435 501 39,000  Level Jacksonville Center
10:17PM 31.0231 -84.4561 156° South 435 501 39,000  Level Jacksonville Center
10:18PM 30.9131 -84.4011 157° South 435 501 39,000  Level Jacksonville Center
10:19PM 30.8011 -84.3436 156° South 435 501 39,000  Level Jacksonville Center
10:20PM 30.6889 -84.2889 157° South 435 501 39,000  Level Jacksonville Center
10:21PM 30.5769 -84.2317 156° South 435 501 39,000  Level Jacksonville Center
10:22PM 30.4583 -84.1722 157° South 435 501 39,000  Level Jacksonville Center
10:23PM 30.3464 -84.1153 156° South 434 499 39,000  Level Jacksonville Center
10:24PM 30.2300 -84.0586 157° South 440 506 39,000  Level Jacksonville Center
10:25PM 30.1175 -84.0044 157° South 440 506 39,000  Level Jacksonville Center
10:26PM 30.0033 -83.9503 158° South 440 506 39,000  Level Jacksonville Center
10:27PM 29.8911 -83.8917 156° South 440 506 39,000  Level Jacksonville Center
10:28PM 29.7767 -83.8378 158° South 440 506 39,000  Level Jacksonville Center
10:29PM 29.6725 -83.7867 157° South 445 512 39,000  Level Jacksonville Center
10:30PM 29.5581 -83.7283 156° South 445 512 39,000  Level Jacksonville Center
10:31PM 29.4458 -83.6747 157° South 445 512 39,000  Level Jacksonville Center
10:32PM 29.3311 -83.6214 158° South 445 512 39,000 -420 Level Jacksonville Center
10:33PM 29.2189 -83.5611 155° Southeast 445 512 38,200 -900 Descending Jacksonville Center
10:34PM 29.1044 -83.5033 156° South 445 512 37,200 -600 Descending Jacksonville Center
10:35PM 28.9878 -83.4433 156° South 456 525 37,000 -120 Descending Jacksonville Center
10:36PM 28.8711 -83.3833 156° South 456 525 37,000  Level Jacksonville Center
10:37PM 28.7586 -83.3283 157° South 456 525 37,000  Level Jacksonville Center
10:38PM 28.6439 -83.2711 156° South 456 525 37,000  Level Jacksonville Center
10:39PM 28.5294 -83.2139 156° South 456 525 37,000  Level Jacksonville Center
10:40PM 28.4189 -83.1569 156° South 456 525 37,000  Level Jacksonville Center
10:40PM 28.3536 -83.1281 159° South 461 531 37,000 -720 Level Miami Center
10:41PM 28.2414 -83.0700 155° Southeast 461 531 36,000 -960 Descending Miami Center
10:42PM 28.1228 -83.0117 157° South 466 536 35,100 -960 Descending Miami Center
10:43PM 28.0067 -82.9514 155° Southeast 466 536 34,100 -1,320 Descending Miami Center
10:44PM 27.8922 -82.8911 155° Southeast 466 536 32,500 -1,620 Descending Miami Center
10:45PM 27.7922 -82.8436 157° South 471 542 30,900 -1,980 Descending Miami Center
10:46PM 27.6717 -82.7811 155° Southeast 425 489 28,600 -2,100 Descending Miami Center
10:47PM 27.5653 -82.7289 156° South 420 483 26,800 -1,860 Descending Miami Center
10:48PM 27.4650 -82.6792 156° South 405 466 24,900 -1,860 Descending Miami Center
10:49PM 27.3731 -82.6347 157° South 397 457 23,100 -2,100 Descending Miami Center
10:50PM 27.2664 -82.5828 157° South 397 457 20,700 -2,220 Descending Miami Center
10:52PM 27.1681 -82.5361 157° South 391 450 18,700 -2,040 Descending Miami Center
10:52PM 27.0719 -82.4892 156° South 391 450 16,700 -1,920 Descending Miami Center
10:53PM 26.9822 -82.4361 152° Southeast 385 443 15,000 -1,800 Descending Miami Center
10:54PM 26.9033 -82.3694 143° Southeast 363 418 13,200 -1,680 Descending Miami Center
10:55PM 26.8222 -82.3075 146° Southeast 358 412 11,700 -1,260 Descending Miami Center
10:56PM 26.7472 -82.2481 145° Southeast 348 400 10,700 -1,080 Descending Miami Center
10:58PM 26.6761 -82.1914 145° Southeast 329 379 9,600 -1,260 Descending Miami Center
10:58PM 26.6050 -82.1372 146° Southeast 315 362 8,300 -1,380 Descending Miami Center
10:59PM 26.5403 -82.0856 144° Southeast 305 351 7,000 -1,320 Descending Miami Center
11:00PM 26.4753 -82.0339 145° Southeast 294 338 5,700 -1,320 Descending Miami Center
11:02PM 26.4177 -81.9364 110° East  Level FlightAware Approximate
11:09PM 26.5333 -81.7500 50° Northeast  Level FlightAware Approximate
11:10PM 26.5362 -81.7552 50° Northeast  Level Estimated
11:11PM 26.5333 -81.7500 50° Northeast  Level FlightAware Approximate
11:12PM 26.5362 -81.7552 50° Northeast  Level Estimated
11:13PM 26.5333 -81.7500 50° Northeast  Level FlightAware Approximate
11:14PM 26.5362 -81.7552 50° Northeast  Level Estimated
11:15PM 26.5333 -81.7500 50° Northeast  Level FlightAware Approximate
11:16PM 26.5362 -81.7552 50° Northeast  Level Estimated
11:17PM 26.5333 -81.7500 50° Northeast  Level FlightAware Approximate
11:18PM 26.5362 -81.7552 50° Northeast  Level Estimated